Acampo, California
Current Conditions -  °F | °C
As of 3:55 AM on Sunday 21 Dec 2014 (Local Time) from KSCK Reporting Station
Haze Haze  
Wind Chill: 13°   Ceiling: 2400
Heat Index: 13°   Visibility: 5mi
Dew Point: 12°   Wind: 0mph
Humidity: 93%   Direction: NA
Pressure: 30.24"   Gusts: NA
Location:  38.17°N, 121.28°W
Report Text: KSCK 211155Z AUTO 00000KT 5SM BR OVC024 13/12 A3024 RMK AO2 SLP239 70013 T01280117 10139 20128 50002
Loading
Personal Weather Stations






























Interactive Weather Map New forecast layout! Learn more

10-Day Weather Forecast

Advertisements
Track Severe Weather on mobile